Terminal Aerodrome Forecast
Issued by NWS

Home | Current Version | Previous Version | Text Only | Print | Product List | Glossary On
Versions: 1 2 3 4 5 6 7 8 9 10 11 12 13 14 15
076
FTUS45 KTFX 181728
TAFGTF
TAF
KGTF 181728Z 1818/1918 24021G34KT P6SM FEW060 FEW250
     FM190000 22013G23KT P6SM FEW080 FEW250
     FM191200 22020G31KT P6SM FEW120 SCT250=

USA.gov is the U.S. government's official web portal to all federal, state and local government web resources and services.